Time;durP1;ratioP1;P1;durP2;ratioP2;P2;SDS_P1;SDS_P2;PMS_P1;PMS_P2;Temp;Humidity;BMP_temperature;BMP_pressure;BME280_temperature;BME280_humidity;BME280_pressure;Samples;Min_cycle;Max_cycle;Signal;HPM_P1;HPM_P2
2021/09/04 00:00:26;;;;;;;2.80;1.87;;;;;;;15.05;65.50;99034.19;5148116;27;40160;-79
2021/09/04 00:02:54;;;;;;;2.17;1.93;;;;;;;14.99;65.60;99026.66;5130547;27;42299;-78
2021/09/04 00:05:21;;;;;;;2.67;1.63;;;;;;;15.01;65.74;99043.38;5129286;27;42277;-80
2021/09/04 00:07:49;;;;;;;2.83;1.70;;;;;;;14.99;65.35;99039.97;5151237;27;41491;-78
2021/09/04 00:10:16;;;;;;;2.63;1.63;;;;;;;14.90;64.95;99024.72;5132715;27;39938;-79
2021/09/04 00:12:45;;;;;;;3.27;2.23;;;;;;;14.93;64.93;99032.47;5146601;27;41997;-80
2021/09/04 00:15:13;;;;;;;2.07;1.50;;;;;;;14.88;65.00;99037.31;5149092;27;42001;-81
2021/09/04 00:17:43;;;;;;;2.17;1.70;;;;;;;14.87;65.00;99030.28;5131814;27;42749;-79
2021/09/04 00:20:13;;;;;;;2.50;1.70;;;;;;;14.83;64.78;99026.16;5146805;27;39946;-79
2021/09/04 00:22:40;;;;;;;1.63;1.27;;;;;;;14.79;64.61;99022.03;5146109;27;41610;-81
2021/09/04 00:25:08;;;;;;;3.10;2.17;;;;;;;14.77;64.69;99026.63;5151600;27;43841;-79
2021/09/04 00:27:36;;;;;;;2.07;1.87;;;;;;;14.70;64.69;99024.44;5148893;27;43341;-80
2021/09/04 00:30:06;;;;;;;2.37;1.47;;;;;;;14.68;64.88;99029.03;5129487;27;38818;-81
2021/09/04 00:32:33;;;;;;;1.53;1.43;;;;;;;14.64;65.03;99030.22;5146304;27;42012;-80
2021/09/04 00:35:01;;;;;;;2.13;1.50;;;;;;;14.59;64.97;99027.03;5147373;27;42839;-78
2021/09/04 00:37:28;;;;;;;2.23;1.60;;;;;;;14.54;64.84;99026.56;5143399;27;41446;-78
2021/09/04 00:39:56;;;;;;;1.37;1.10;;;;;;;14.51;65.05;99029.47;5146720;27;39809;-80
2021/09/04 00:42:23;;;;;;;1.50;1.40;;;;;;;14.48;64.94;99029.69;5132500;27;41838;-81
2021/09/04 00:44:51;;;;;;;1.47;1.37;;;;;;;14.44;64.80;99028.22;5149129;27;42638;-78
2021/09/04 00:47:20;;;;;;;1.70;1.60;;;;;;;14.42;64.77;99035.50;5148502;27;42996;-80
2021/09/04 00:49:47;;;;;;;1.23;1.10;;;;;;;14.38;64.95;99034.81;5145239;27;39448;-78
2021/09/04 00:52:15;;;;;;;1.20;1.10;;;;;;;14.35;64.67;99023.53;5146487;27;40861;-81
2021/09/04 00:54:44;;;;;;;1.37;1.10;;;;;;;14.32;65.15;99029.13;5129254;27;43155;-81
2021/09/04 00:57:12;;;;;;;2.20;1.40;;;;;;;14.29;64.84;99029.34;5147091;27;42004;-81
2021/09/04 00:59:39;;;;;;;2.33;1.50;;;;;;;14.26;65.04;99040.22;5162251;27;39122;-78
2021/09/04 01:02:08;;;;;;;1.47;1.20;;;;;;;14.24;65.18;99031.50;5149646;27;42604;-79
2021/09/04 01:04:37;;;;;;;2.40;1.10;;;;;;;14.21;64.86;99032.59;5129600;27;43219;-78
2021/09/04 01:07:05;;;;;;;2.40;1.40;;;;;;;14.19;64.78;99028.34;5181063;27;42152;-80
2021/09/04 01:09:34;;;;;;;1.83;1.00;;;;;;;14.18;65.10;99026.63;5143186;27;40218;-80
2021/09/04 01:12:03;;;;;;;2.00;1.50;;;;;;;14.16;65.01;99023.22;5148598;27;42532;-78
2021/09/04 01:14:31;;;;;;;1.87;1.37;;;;;;;14.13;65.27;99018.97;5128599;27;41806;-81
2021/09/04 01:16:59;;;;;;;1.37;1.07;;;;;;;14.12;65.28;99019.09;5146705;27;41183;-81
2021/09/04 01:19:26;;;;;;;1.83;1.13;;;;;;;14.09;65.45;99022.84;5132622;27;39677;-80
2021/09/04 01:21:55;;;;;;;2.60;1.93;;;;;;;14.07;65.37;99019.44;5147989;27;42694;-78
2021/09/04 01:24:23;;;;;;;1.67;1.40;;;;;;;14.05;65.50;99017.84;5179965;27;43504;-79
2021/09/04 01:26:52;;;;;;;1.73;1.27;;;;;;;14.02;65.48;99017.13;5129184;27;40996;-81
2021/09/04 01:29:19;;;;;;;1.40;1.30;;;;;;;13.99;65.69;99021.81;5146289;27;38867;-78
2021/09/04 01:31:47;;;;;;;1.57;1.47;;;;;;;13.96;65.29;99017.59;5146896;27;42074;-79
2021/09/04 01:34:15;;;;;;;1.97;1.23;;;;;;;13.93;65.48;99012.47;5149508;27;43841;-79
2021/09/04 01:36:42;;;;;;;1.90;1.27;;;;;;;13.91;65.32;99014.41;5149447;27;43158;-80
2021/09/04 01:39:11;;;;;;;2.40;1.27;;;;;;;13.90;65.62;99018.03;5146450;27;40812;-79
2021/09/04 01:41:41;;;;;;;2.30;1.17;;;;;;;13.87;65.52;99017.38;5146027;27;42661;-80
2021/09/04 01:44:10;;;;;;;1.40;1.13;;;;;;;13.84;65.61;99018.50;5145308;27;41935;-81
2021/09/04 01:46:37;;;;;;;1.57;1.13;;;;;;;13.76;65.59;98993.38;5128838;27;42246;-79
2021/09/04 01:49:05;;;;;;;2.17;1.33;;;;;;;13.80;65.45;99011.69;5145401;27;39064;-79
2021/09/04 01:51:33;;;;;;;2.47;1.30;;;;;;;13.79;65.57;99014.44;5147008;27;40848;-81
2021/09/04 01:54:01;;;;;;;2.53;1.53;;;;;;;13.77;65.46;99017.22;5148805;27;41669;-78
2021/09/04 01:56:28;;;;;;;1.57;1.23;;;;;;;13.70;65.69;99008.00;5128925;27;41350;-81
2021/09/04 01:58:56;;;;;;;1.73;1.13;;;;;;;13.68;65.67;98996.59;5147483;27;40110;-81
2021/09/04 02:01:25;;;;;;;2.33;1.37;;;;;;;13.70;65.57;99013.31;5144484;27;41716;-79
2021/09/04 02:03:53;;;;;;;2.00;1.50;;;;;;;13.67;65.88;99010.88;5184582;27;41934;-80
2021/09/04 02:06:21;;;;;;;1.50;1.30;;;;;;;13.54;66.33;98978.97;5132233;27;41196;-80
2021/09/04 02:08:48;;;;;;;2.10;1.37;;;;;;;13.61;66.06;99003.31;5149706;27;39167;-82
2021/09/04 02:11:16;;;;;;;2.93;1.77;;;;;;;13.58;66.96;98991.09;5133477;27;43060;-81
2021/09/04 02:13:44;;;;;;;2.37;1.80;;;;;;;13.52;66.67;98996.00;5132831;27;42877;-80
2021/09/04 02:16:11;;;;;;;1.77;1.33;;;;;;;13.52;67.50;98996.00;5131520;27;41264;-78
2021/09/04 02:18:40;;;;;;;2.63;1.60;;;;;;;13.48;67.40;98989.19;5148389;27;40993;-79
2021/09/04 02:21:08;;;;;;;1.97;1.20;;;;;;;13.44;67.21;98993.91;5166063;27;41457;-81
2021/09/04 02:23:37;;;;;;;2.13;1.40;;;;;;;13.43;67.14;98996.69;5163611;27;43225;-79
2021/09/04 02:26:05;;;;;;;2.47;1.27;;;;;;;13.39;67.02;99000.50;5148639;27;41934;-82
2021/09/04 02:28:32;;;;;;;1.50;1.30;;;;;;;13.38;67.01;98999.66;5140054;27;39261;-81
2021/09/04 02:31:00;;;;;;;2.00;1.70;;;;;;;13.36;67.02;98995.41;5166560;27;42768;-80
2021/09/04 02:33:28;;;;;;;1.40;1.30;;;;;;;13.34;67.10;98992.88;5143064;27;43102;-80
2021/09/04 02:35:58;;;;;;;1.40;1.30;;;;;;;13.30;66.96;98986.06;5131987;27;41176;-81
2021/09/04 02:38:27;;;;;;;1.87;1.20;;;;;;;13.28;67.32;98994.16;5184220;27;39634;-78
2021/09/04 02:40:55;;;;;;;2.37;1.40;;;;;;;13.25;67.07;98994.34;5145935;27;41050;-80
2021/09/04 02:43:23;;;;;;;2.47;1.50;;;;;;;13.24;67.34;98995.31;5147657;27;42748;-80
2021/09/04 02:45:50;;;;;;;1.47;1.37;;;;;;;13.22;67.05;98997.25;5147125;27;43119;-80
2021/09/04 02:48:18;;;;;;;3.20;1.93;;;;;;;13.21;67.19;99003.53;5153067;27;40299;-80
2021/09/04 02:50:46;;;;;;;2.30;1.70;;;;;;;13.20;67.04;99000.97;5152445;27;41983;-78
2021/09/04 02:53:16;;;;;;;1.90;1.17;;;;;;;13.04;66.74;98979.91;5149307;27;43011;-78
2021/09/04 02:55:44;;;;;;;2.30;1.27;;;;;;;13.17;66.90;99001.19;5147121;27;42118;-79
2021/09/04 02:58:11;;;;;;;1.30;1.00;;;;;;;13.13;67.32;98995.19;5148101;27;40005;-80
2021/09/04 03:00:41;;;;;;;1.27;0.80;;;;;;;13.14;67.09;98996.94;5130759;27;40776;-79
2021/09/04 03:03:09;;;;;;;1.50;1.30;;;;;;;13.13;67.36;98995.19;5148428;27;43862;-82
2021/09/04 03:05:37;;;;;;;1.20;1.10;;;;;;;13.14;67.32;98996.06;5166807;27;41416;-80
2021/09/04 03:08:06;;;;;;;1.93;1.33;;;;;;;13.13;67.47;98991.69;5153621;27;40768;-78
2021/09/04 03:10:36;;;;;;;1.73;1.30;;;;;;;13.13;67.18;98991.69;5149347;27;42060;-78
2021/09/04 03:13:05;;;;;;;1.87;1.20;;;;;;;13.14;67.19;98994.28;5148278;27;42104;-78
2021/09/04 03:15:32;;;;;;;1.80;1.30;;;;;;;13.12;67.54;98988.19;5145113;27;42633;-81
2021/09/04 03:18:01;;;;;;;1.80;1.30;;;;;;;13.12;67.45;98989.97;5130832;27;38721;-79
2021/09/04 03:20:29;;;;;;;2.40;1.30;;;;;;;13.10;67.51;98990.13;5147798;27;42117;-81
2021/09/04 03:22:58;;;;;;;1.07;0.87;;;;;;;13.08;67.30;98992.03;5148560;27;42961;-81
2021/09/04 03:25:26;;;;;;;1.20;1.10;;;;;;;12.95;67.61;98970.78;5151051;27;41444;-78
2021/09/04 03:27:56;;;;;;;2.07;1.20;;;;;;;13.07;67.54;98998.31;5152280;27;41285;-81
2021/09/04 03:30:24;;;;;;;2.47;1.27;;;;;;;13.07;67.30;99002.78;5147409;27;41924;-81
2021/09/04 03:32:54;;;;;;;1.57;1.13;;;;;;;13.05;67.38;99008.19;5149826;27;41948;-81
2021/09/04 03:35:22;;;;;;;1.70;1.20;;;;;;;13.03;67.44;99010.09;5153142;27;42370;-78
2021/09/04 03:37:51;;;;;;;1.10;1.00;;;;;;;13.01;67.37;99006.69;5148320;27;38780;-81
2021/09/04 03:40:19;;;;;;;0.83;0.83;;;;;;;12.99;67.67;99003.28;5181821;27;42634;-79
2021/09/04 03:42:47;;;;;;;2.00;1.20;;;;;;;12.96;67.67;99008.84;5130393;27;41673;-78
2021/09/04 03:45:16;;;;;;;2.03;1.43;;;;;;;12.95;67.70;99008.00;5148788;27;41140;-81
2021/09/04 03:47:46;;;;;;;1.73;1.30;;;;;;;12.94;67.78;99010.75;5145962;27;40053;-79
2021/09/04 03:50:14;;;;;;;1.73;1.30;;;;;;;12.92;67.78;99010.00;5148947;27;41867;-80
2021/09/04 03:52:42;;;;;;;2.23;1.50;;;;;;;12.89;67.72;99016.38;5152497;27;43028;-78
2021/09/04 03:55:10;;;;;;;1.53;1.37;;;;;;;12.87;67.39;99009.47;5149926;27;41684;-80
2021/09/04 03:57:38;;;;;;;1.40;1.07;;;;;;;12.86;67.67;99013.06;5130145;27;40283;-80
2021/09/04 04:00:07;;;;;;;1.73;1.43;;;;;;;12.83;67.54;99013.31;5148006;27;42776;-80
2021/09/04 04:02:42;;;;;;;3.43;1.30;;;;;;;12.80;67.55;99008.19;5151206;27;44171;-79
2021/09/04 04:05:15;;;;;;;1.27;1.03;;;;;;;12.78;67.58;99012.75;5148058;27;41173;-79
2021/09/04 04:07:44;;;;;;;1.73;1.23;;;;;;;12.75;67.60;99016.47;5148056;27;40538;-77
2021/09/04 04:10:12;;;;;;;1.67;1.00;;;;;;;12.73;67.48;99007.78;5147908;27;42840;-79
2021/09/04 04:12:41;;;;;;;1.80;1.37;;;;;;;12.71;67.49;99008.84;5130315;27;41708;-81
2021/09/04 04:15:10;;;;;;;1.43;1.07;;;;;;;12.61;67.46;98986.53;5146130;27;43142;-79
2021/09/04 04:17:38;;;;;;;3.07;2.00;;;;;;;12.67;67.85;99002.03;5144878;27;38932;-81
2021/09/04 04:20:09;;;;;;;1.67;1.07;;;;;;;12.68;67.67;99006.38;5149405;27;42061;-80
2021/09/04 04:22:37;;;;;;;1.40;1.30;;;;;;;12.66;67.79;99006.50;5150880;27;42967;-79
2021/09/04 04:25:06;;;;;;;1.37;1.27;;;;;;;12.63;68.00;99000.53;5145722;27;41384;-80
2021/09/04 04:27:34;;;;;;;1.53;1.37;;;;;;;12.63;67.78;99008.50;5143246;27;39221;-80
2021/09/04 04:30:04;;;;;;;2.13;1.57;;;;;;;12.62;68.19;99006.78;5129638;27;40751;-82
2021/09/04 04:32:32;;;;;;;1.50;1.27;;;;;;;12.58;68.35;99003.50;5146694;27;42986;-81
2021/09/04 04:35:01;;;;;;;4.93;1.40;;;;;;;12.59;68.14;99003.41;5164134;27;41190;-78
2021/09/04 04:37:31;;;;;;;1.40;1.10;;;;;;;12.59;68.22;98999.91;5146915;27;40003;-82
2021/09/04 04:39:59;;;;;;;2.00;1.20;;;;;;;12.59;68.26;99007.88;5132836;27;40782;-80
2021/09/04 04:42:28;;;;;;;2.30;1.30;;;;;;;12.58;68.27;99003.50;5148904;27;43546;-78
2021/09/04 04:44:55;;;;;;;2.93;1.60;;;;;;;12.57;68.15;99007.97;5111411;27;42358;-81
2021/09/04 04:47:27;;;;;;;1.87;1.13;;;;;;;12.51;67.96;98997.75;5134530;27;39837;-79
2021/09/04 04:49:55;;;;;;;1.60;1.27;;;;;;;12.50;67.80;99000.50;5147443;27;40847;-82
2021/09/04 04:52:23;;;;;;;2.80;1.00;;;;;;;12.55;67.79;99009.88;5147665;27;43799;-80
2021/09/04 04:54:53;;;;;;;2.17;1.23;;;;;;;12.55;67.99;99015.19;5149326;27;41613;-80
2021/09/04 04:57:22;;;;;;;2.40;1.17;;;;;;;12.57;68.04;99020.41;5149168;27;40666;-81
2021/09/04 04:59:50;;;;;;;2.63;1.23;;;;;;;12.56;67.88;99011.59;5147012;27;41999;-81
2021/09/04 05:02:18;;;;;;;1.43;1.30;;;;;;;12.55;67.69;99017.84;5147172;27;42914;-79
2021/09/04 05:04:46;;;;;;;1.57;1.03;;;;;;;12.51;67.93;99007.53;5145894;27;43130;-78
2021/09/04 05:07:14;;;;;;;1.07;1.00;;;;;;;12.58;67.95;99020.31;5145583;27;38685;-82
2021/09/04 05:09:43;;;;;;;1.73;1.00;;;;;;;12.59;67.68;99022.00;5145467;27;42087;-80
2021/09/04 05:12:14;;;;;;;2.30;1.43;;;;;;;12.63;68.08;99027.09;5148867;27;43795;-83
2021/09/04 05:14:42;;;;;;;4.20;1.77;;;;;;;12.62;67.78;99020.06;5148959;27;42205;-79
2021/09/04 05:17:10;;;;;;;1.47;1.10;;;;;;;12.70;67.93;99028.41;5131769;27;38827;-79
2021/09/04 05:19:40;;;;;;;1.30;1.20;;;;;;;12.72;67.72;99021.19;5178112;27;41905;-80
2021/09/04 05:22:09;;;;;;;1.57;1.10;;;;;;;12.59;67.84;98995.44;5147067;27;43914;-81
2021/09/04 05:24:37;;;;;;;1.30;1.20;;;;;;;12.69;68.27;98994.81;5145337;27;41885;-81
2021/09/04 05:27:05;;;;;;;1.43;1.10;;;;;;;12.88;68.28;99016.47;5149091;27;40903;-80
2021/09/04 05:29:35;;;;;;;2.57;1.67;;;;;;;12.95;68.50;99021.28;5148168;27;40989;-79
2021/09/04 05:32:04;;;;;;;1.70;1.43;;;;;;;13.01;68.44;99017.34;5132320;27;41825;-81
2021/09/04 05:34:31;;;;;;;2.07;1.47;;;;;;;13.04;68.25;99001.16;5148066;27;42175;-81
2021/09/04 05:36:59;;;;;;;1.30;1.20;;;;;;;13.14;67.93;99015.56;5146658;27;39793;-79
2021/09/04 05:39:27;;;;;;;1.43;1.17;;;;;;;13.19;67.88;99009.91;5116108;27;41048;-79
2021/09/04 05:41:55;;;;;;;1.67;1.10;;;;;;;13.35;67.89;99023.00;5132053;27;42135;-80
2021/09/04 05:44:22;;;;;;;1.53;1.43;;;;;;;13.48;68.07;99026.44;5150701;27;42955;-81
2021/09/04 05:46:51;;;;;;;1.73;1.37;;;;;;;13.66;67.86;99019.81;5131672;27;39998;-78
2021/09/04 05:49:19;;;;;;;1.60;1.20;;;;;;;13.88;67.25;99019.94;5140766;27;41571;-79
2021/09/04 05:51:47;;;;;;;1.27;1.17;;;;;;;14.02;67.50;99024.25;5132376;27;41924;-81
2021/09/04 05:54:14;;;;;;;3.17;1.47;;;;;;;14.09;67.55;99027.31;5148543;27;42340;-80
2021/09/04 05:56:51;;;;;;;1.77;1.50;;;;;;;14.17;67.79;99025.78;5149051;27;41198;-81
2021/09/04 05:59:19;;;;;;;1.73;1.33;;;;;;;14.26;68.13;99026.91;5148608;27;41199;-79
2021/09/04 06:01:47;;;;;;;2.17;1.33;;;;;;;14.38;68.03;99023.31;5149584;27;43027;-80
2021/09/04 06:04:16;;;;;;;1.40;1.20;;;;;;;14.51;68.62;99021.47;5149392;27;43246;-82
2021/09/04 06:06:43;;;;;;;3.70;1.90;;;;;;;14.80;68.16;99023.72;5148427;27;38848;-79
2021/09/04 06:09:12;;;;;;;2.47;2.00;;;;;;;15.15;67.23;99026.31;5149716;27;41871;-80
2021/09/04 06:11:41;;;;;;;1.80;1.60;;;;;;;15.49;66.47;99021.81;5147521;27;43060;-77
2021/09/04 06:14:09;;;;;;;2.40;1.90;;;;;;;15.76;66.01;99020.47;5147816;27;43271;-83
2021/09/04 06:16:37;;;;;;;2.77;2.30;;;;;;;15.89;65.97;99025.66;5148393;27;40613;-81
2021/09/04 06:19:04;;;;;;;2.00;1.80;;;;;;;15.85;65.99;99018.03;5146323;27;41988;-79
2021/09/04 06:21:37;;;;;;;1.80;1.63;;;;;;;15.82;66.50;99019.97;5144949;27;43723;-84
2021/09/04 06:24:08;;;;;;;1.63;1.30;;;;;;;15.83;66.75;99015.47;5145730;27;41634;-82
2021/09/04 06:26:38;;;;;;;2.33;1.90;;;;;;;15.87;66.82;99021.41;5131401;27;39957;-82
2021/09/04 06:29:06;;;;;;;2.17;1.83;;;;;;;15.93;67.29;99015.59;5130699;27;40854;-80
2021/09/04 06:31:38;;;;;;;2.70;1.70;;;;;;;16.01;67.10;99013.13;5131729;27;43853;-81
2021/09/04 06:34:08;;;;;;;1.83;1.67;;;;;;;16.26;67.06;99022.63;5109176;27;41520;-81
2021/09/04 06:36:37;;;;;;;3.07;1.97;;;;;;;16.51;67.45;99022.28;5123072;27;39244;-80
2021/09/04 06:39:05;;;;;;;2.30;1.47;;;;;;;16.68;67.30;99024.44;5126374;27;40769;-80
2021/09/04 06:41:33;;;;;;;3.83;2.10;;;;;;;16.75;67.55;99022.06;5124725;27;42715;-81
2021/09/04 06:44:10;;;;;;;2.70;1.73;;;;;;;16.83;67.15;99017.75;5125369;27;42284;-81
2021/09/04 06:46:37;;;;;;;3.40;2.07;;;;;;;16.99;67.07;99027.16;5132475;27;38598;-80
2021/09/04 06:49:05;;;;;;;1.70;1.57;;;;;;;17.14;66.94;99023.16;5148962;27;42729;-81
2021/09/04 06:51:33;;;;;;;2.43;2.00;;;;;;;17.23;66.59;99020.50;5148092;27;42772;-79
2021/09/04 06:54:04;;;;;;;2.40;1.77;;;;;;;17.34;66.29;99024.06;5146629;27;41278;-81
2021/09/04 06:56:32;;;;;;;2.33;2.13;;;;;;;17.42;66.26;99021.59;5145777;27;39896;-81
2021/09/04 06:59:00;;;;;;;1.90;1.70;;;;;;;17.60;65.71;99023.47;5129637;27;41227;-81
2021/09/04 07:01:29;;;;;;;2.27;1.70;;;;;;;17.80;65.51;99027.06;5130001;27;41911;-81
2021/09/04 07:03:57;;;;;;;2.57;2.00;;;;;;;17.98;66.25;99016.56;5148231;27;42956;-79
2021/09/04 07:06:25;;;;;;;2.40;2.07;;;;;;;18.19;66.56;99016.44;5141815;27;40812;-80
2021/09/04 07:08:52;;;;;;;2.20;2.00;;;;;;;18.59;65.62;99021.69;5129312;27;42165;-78
2021/09/04 07:11:21;;;;;;;2.73;2.17;;;;;;;19.40;63.95;99022.94;5135143;27;43069;-79
2021/09/04 07:13:51;;;;;;;4.70;1.90;;;;;;;20.57;61.09;99032.00;5140863;27;42066;-82
2021/09/04 07:16:20;;;;;;;2.80;2.17;;;;;;;21.70;58.59;99040.88;5141219;27;39002;-80
2021/09/04 07:18:47;;;;;;;2.50;2.30;;;;;;;22.60;56.31;99043.84;5130600;27;40752;-81
2021/09/04 07:21:15;;;;;;;3.03;2.43;;;;;;;23.02;55.25;99055.31;5128122;27;41844;-80
2021/09/04 07:23:49;;;;;;;2.20;2.00;;;;;;;23.13;53.36;99063.06;5137275;27;42317;-78
2021/09/04 07:26:17;;;;;;;2.50;2.20;;;;;;;23.07;53.55;99062.94;5142924;27;39169;-80
2021/09/04 07:28:46;;;;;;;4.43;2.37;;;;;;;23.01;54.93;99044.69;5139560;27;42659;-79
2021/09/04 07:31:16;;;;;;;2.37;2.13;;;;;;;23.08;55.17;99043.84;5145546;27;42984;-79
2021/09/04 07:33:46;;;;;;;2.77;1.90;;;;;;;23.33;55.03;99054.63;5141535;27;42471;-79
2021/09/04 07:36:13;;;;;;;2.07;1.70;;;;;;;23.25;55.45;99029.28;5147584;27;39453;-79
2021/09/04 07:38:41;;;;;;;2.53;2.10;;;;;;;23.32;54.44;99050.22;5148169;27;41047;-77
2021/09/04 07:41:09;;;;;;;3.73;2.50;;;;;;;23.46;53.78;99054.94;5146775;27;42781;-78
2021/09/04 07:43:37;;;;;;;2.43;2.20;;;;;;;23.88;52.87;99055.47;5151108;27;41983;-77
2021/09/04 07:46:06;;;;;;;3.30;2.60;;;;;;;24.68;51.67;99066.03;5156605;27;40561;-80
2021/09/04 07:48:33;;;;;;;2.03;1.73;;;;;;;25.35;49.81;99072.41;5152415;27;41470;-77
2021/09/04 07:51:01;;;;;;;2.13;1.93;;;;;;;25.71;49.77;99072.59;5142275;27;42816;-80
2021/09/04 07:53:29;;;;;;;2.53;2.33;;;;;;;26.09;47.90;99081.44;5160945;27;42820;-78
2021/09/04 07:55:57;;;;;;;2.80;2.23;;;;;;;26.82;45.59;99091.31;5141921;27;38891;-78
2021/09/04 07:58:25;;;;;;;2.60;2.00;;;;;;;28.00;44.79;99095.16;5148862;27;40966;-81
2021/09/04 08:00:52;;;;;;;2.37;2.03;;;;;;;29.39;40.02;99121.81;5147433;27;41881;-79
2021/09/04 08:03:21;;;;;;;2.30;2.10;;;;;;;29.14;39.95;99115.28;5141847;27;42143;-79
2021/09/04 08:05:49;;;;;;;2.10;1.90;;;;;;;28.83;41.81;99100.34;5147364;27;40478;-79
2021/09/04 08:08:17;;;;;;;2.47;1.90;;;;;;;28.74;41.94;99098.81;5143379;27;41901;-78
2021/09/04 08:10:45;;;;;;;3.03;2.23;;;;;;;28.76;40.30;99102.19;5143061;27;43094;-80
2021/09/04 08:13:12;;;;;;;2.93;2.40;;;;;;;28.78;42.50;99091.94;5147965;27;42019;-79
2021/09/04 08:15:40;;;;;;;3.00;2.67;;;;;;;28.89;40.65;99107.69;5125139;27;39949;-78
2021/09/04 08:18:08;;;;;;;2.93;2.33;;;;;;;28.89;40.67;99085.88;5138212;27;40673;-77
2021/09/04 08:20:38;;;;;;;2.57;2.37;;;;;;;29.22;39.44;99115.06;5109131;27;41815;-80
2021/09/04 08:23:07;;;;;;;2.33;2.13;;;;;;;29.06;39.88;99112.72;5128323;27;42573;-79
2021/09/04 08:25:36;;;;;;;2.10;1.90;;;;;;;29.38;39.89;99106.50;5138741;27;40016;-81
2021/09/04 08:28:08;;;;;;;2.77;2.57;;;;;;;30.36;38.44;99094.53;5142006;27;41931;-78
2021/09/04 08:30:35;;;;;;;3.07;2.77;;;;;;;31.22;35.63;99134.25;5130797;27;43112;-79
2021/09/04 08:33:04;;;;;;;2.37;2.17;;;;;;;31.75;35.98;99138.25;5132499;27;41402;-78
2021/09/04 08:35:32;;;;;;;2.50;2.30;;;;;;;32.32;34.18;99147.13;5133564;27;39091;-78
2021/09/04 08:38:06;;;;;;;2.77;2.43;;;;;;;33.08;33.46;99153.97;5150889;27;40535;-80
2021/09/04 08:40:34;;;;;;;2.97;2.67;;;;;;;34.05;32.34;99159.97;5135987;27;41771;-81
2021/09/04 08:43:02;;;;;;;2.97;2.67;;;;;;;34.07;31.30;99161.44;5147986;27;41385;-79
2021/09/04 08:45:30;;;;;;;2.37;2.17;;;;;;;33.60;31.71;99135.84;5151259;27;41008;-79
2021/09/04 08:48:00;;;;;;;2.77;2.57;;;;;;;33.51;31.91;99150.97;5133162;27;40899;-79
2021/09/04 08:50:28;;;;;;;2.70;2.27;;;;;;;33.37;33.06;99136.66;5149781;27;43123;-80
2021/09/04 08:52:57;;;;;;;2.30;2.10;;;;;;;33.68;33.44;99142.88;5132382;27;43257;-81
2021/09/04 08:55:26;;;;;;;2.37;2.17;;;;;;;34.07;32.27;99141.34;5111655;27;39036;-81
2021/09/04 08:57:56;;;;;;;2.27;2.07;;;;;;;33.85;32.04;99150.22;5111982;27;41220;-80
2021/09/04 09:00:31;;;;;;;2.33;2.10;;;;;;;33.50;33.08;99141.09;5141498;27;42171;-79
2021/09/04 09:03:01;;;;;;;2.80;2.60;;;;;;;33.54;32.75;99136.78;5142893;27;42318;-80
2021/09/04 09:05:39;;;;;;;2.30;2.10;;;;;;;33.32;31.69;99149.41;5149056;27;41049;-80
2021/09/04 09:08:08;;;;;;;2.50;2.30;;;;;;;32.84;33.19;99136.59;5149838;27;41552;-79
2021/09/04 09:10:38;;;;;;;3.20;1.83;;;;;;;32.60;32.54;99146.59;5148154;27;42814;-79
2021/09/04 09:13:06;;;;;;;2.53;2.33;;;;;;;32.28;33.12;99140.44;5131900;27;42182;-79
2021/09/04 09:15:38;;;;;;;4.03;2.40;;;;;;;31.92;34.06;99132.16;5143472;27;40213;-78
2021/09/04 09:18:09;;;;;;;2.37;2.17;;;;;;;31.63;35.81;99112.63;5138188;27;42157;-79
2021/09/04 09:20:36;;;;;;;2.33;2.03;;;;;;;31.29;35.91;99115.84;5150586;27;43081;-79
2021/09/04 09:23:06;;;;;;;2.27;1.93;;;;;;;30.94;37.23;99102.63;5149417;27;42532;-78
2021/09/04 09:25:35;;;;;;;2.23;2.03;;;;;;;30.64;35.60;99116.06;5132378;27;39112;-79
2021/09/04 09:28:08;;;;;;;2.17;1.97;;;;;;;30.62;35.70;99111.88;5151167;27;43015;-77
2021/09/04 09:30:38;;;;;;;3.40;2.50;;;;;;;30.93;35.06;99122.81;5132255;27;41773;-79
2021/09/04 09:33:08;;;;;;;2.97;2.40;;;;;;;30.68;35.06;99121.94;5130084;27;41091;-78
2021/09/04 09:35:39;;;;;;;2.50;1.80;;;;;;;30.60;34.99;99124.91;5141452;27;38712;-76
2021/09/04 09:38:08;;;;;;;1.83;1.73;;;;;;;30.61;35.56;99112.94;5149980;27;42180;-81
2021/09/04 09:40:37;;;;;;;2.57;2.10;;;;;;;30.41;35.54;99120.38;5149316;27;42740;-79
2021/09/04 09:43:17;;;;;;;3.10;2.40;;;;;;;30.00;36.67;99116.09;5149836;27;43057;-80
2021/09/04 09:45:48;;;;;;;2.60;2.30;;;;;;;29.75;37.00;99106.88;5132410;27;40161;-80
2021/09/04 09:48:22;;;;;;;2.30;2.10;;;;;;;29.45;37.53;99101.03;5136892;27;40968;-80
2021/09/04 09:50:52;;;;;;;2.50;1.97;;;;;;;29.28;37.50;99089.69;5144218;27;43255;-78
2021/09/04 09:53:21;;;;;;;2.00;1.80;;;;;;;29.12;38.44;99099.13;5150201;27;42544;-79
2021/09/04 09:55:50;;;;;;;1.80;1.70;;;;;;;29.07;38.55;99096.16;5148800;27;40165;-79
2021/09/04 09:58:21;;;;;;;2.00;1.80;;;;;;;28.99;38.23;99071.00;5149709;27;42524;-79
2021/09/04 10:00:51;;;;;;;2.50;2.13;;;;;;;29.01;37.61;99098.91;5131758;27;41846;-82
2021/09/04 10:03:21;;;;;;;2.13;1.93;;;;;;;29.18;37.46;99105.59;5134199;27;42306;-79
2021/09/04 10:05:49;;;;;;;2.57;2.37;;;;;;;29.22;37.61;99101.41;5148620;27;39192;-80
2021/09/04 10:08:19;;;;;;;2.57;2.10;;;;;;;29.00;37.11;99103.50;5138690;27;42611;-81
2021/09/04 10:10:47;;;;;;;2.30;1.83;;;;;;;28.84;37.33;99099.28;5147151;27;42822;-81
2021/09/04 10:13:16;;;;;;;2.33;1.80;;;;;;;28.72;38.81;99089.16;5130916;27;42045;-82
2021/09/04 10:15:49;;;;;;;2.40;1.90;;;;;;;28.76;38.59;99085.81;5142771;27;39756;-78
2021/09/04 10:18:22;;;;;;;1.93;1.73;;;;;;;29.12;37.97;99084.63;5127942;27;41673;-79
2021/09/04 10:21:00;;;;;;;2.20;2.00;;;;;;;29.89;36.83;99097.59;5126804;27;43139;-83
2021/09/04 10:23:38;;;;;;;2.50;2.30;;;;;;;31.06;34.98;99108.22;5110956;27;41679;-80
2021/09/04 10:26:31;;;;;;;2.10;1.90;;;;;;;31.50;33.66;99117.38;5129663;27;38888;-83
2021/09/04 10:29:04;;;;;;;1.93;1.83;;;;;;;31.71;34.08;99104.16;5112195;27;41121;-79
2021/09/04 10:31:59;;;;;;;2.87;1.93;;;;;;;32.24;33.14;99109.06;5174488;27;20587;-83
2021/09/04 10:34:30;;;;;;;1.77;1.63;;;;;;;32.68;31.87;99120.72;5166504;27;40697;-83
2021/09/04 10:37:04;;;;;;;1.63;1.43;;;;;;;33.41;30.64;99123.25;5167920;27;42801;-83
2021/09/04 10:39:49;;;;;;;1.83;1.60;;;;;;;34.13;29.72;99124.72;5188111;27;44663;-82
2021/09/04 10:42:19;;;;;;;2.03;1.83;;;;;;;34.21;29.54;99129.00;5176055;27;41097;-79
2021/09/04 10:44:48;;;;;;;1.90;1.80;;;;;;;34.24;29.71;99125.78;5147451;27;38749;-79
2021/09/04 10:47:18;;;;;;;1.57;1.47;;;;;;;34.38;30.11;99099.69;5184381;27;41971;-82
2021/09/04 10:49:48;;;;;;;1.97;1.70;;;;;;;34.93;29.01;99119.25;5166623;27;41834;-80
2021/09/04 10:52:16;;;;;;;1.80;1.70;;;;;;;35.35;27.92;99116.16;5148385;27;42399;-82
2021/09/04 10:55:02;;;;;;;1.90;1.67;;;;;;;35.19;27.95;99117.78;5181944;27;40990;-80
2021/09/04 10:57:46;;;;;;;2.20;1.70;;;;;;;34.66;30.38;99098.03;5156512;27;42145;-80
2021/09/04 11:00:25;;;;;;;2.17;1.83;;;;;;;34.18;29.15;99094.59;5174533;27;41640;-80
2021/09/04 11:03:04;;;;;;;1.83;1.73;;;;;;;33.94;30.08;99086.63;5166181;27;42608;-82
2021/09/04 11:05:51;;;;;;;2.20;2.00;;;;;;;33.78;29.92;99094.53;5151055;27;39079;-82
2021/09/04 11:08:46;;;;;;;1.77;1.67;;;;;;;33.97;29.69;99097.16;5166560;27;41553;-81
2021/09/04 11:11:19;;;;;;;1.60;1.50;;;;;;;34.42;28.48;99105.53;5118841;27;42111;-80
2021/09/04 11:13:49;;;;;;;1.63;1.43;;;;;;;34.54;28.57;99078.84;5176960;27;43035;-81
2021/09/04 11:16:47;;;;;;;1.80;1.70;;;;;;;34.77;27.79;99098.00;5178055;27;40971;-80
2021/09/04 11:19:19;;;;;;;2.43;1.97;;;;;;;35.25;27.09;99085.66;5167802;27;41688;-79
2021/09/04 11:21:59;;;;;;;1.83;1.60;;;;;;;36.31;26.48;99105.78;5164209;27;42012;-80
2021/09/04 11:24:33;;;;;;;1.63;1.53;;;;;;;37.23;24.99;99116.75;5167302;27;43126;-81
2021/09/04 11:27:07;;;;;;;1.60;1.50;;;;;;;36.10;25.27;99096.38;5179030;27;40022;-80
2021/09/04 11:29:39;;;;;;;1.80;1.70;;;;;;;34.83;27.01;99096.22;5170561;27;42658;-80
2021/09/04 11:32:08;;;;;;;1.30;1.20;;;;;;;34.38;27.58;99088.69;5156954;27;41771;-81
2021/09/04 11:34:39;;;;;;;1.60;1.50;;;;;;;34.99;26.92;99091.81;5179185;27;42189;-81
2021/09/04 11:37:32;;;;;;;1.30;1.20;;;;;;;36.74;25.65;99099.38;5169796;27;40265;-82
2021/09/04 11:40:03;;;;;;;1.63;1.53;;;;;;;39.18;22.39;99115.63;5179281;27;42791;-80
2021/09/04 11:42:33;;;;;;;1.85;1.75;;;;;;;40.60;20.69;99132.03;5143519;27;42377;-80
2021/09/04 11:45:03;;;;;;;2.03;1.83;;;;;;;40.79;20.49;99116.44;5151517;27;41264;-80